Alert Bay, Canada
Current Conditions -  °F | °C
As of 12:00 AM on Friday 31 Oct 2014 (Local Time) from CYZT Reporting Station
Broken Clouds Broken Clouds  
Wind Chill: 43°   Ceiling: 5000
Heat Index: 43°   Visibility: 15mi
Dew Point: 43°   Wind: 3mph
Humidity: 100%   Direction: 160°SSE
Pressure: 29.72"   Gusts: NA
Location:  50.58°N, 126.92°W
Report Text: CYZT 310700Z 16003KT 120V180 15SM BKN050 06/06 A2972 RMK SC6 SLP064
Loading
Personal Weather Stations






























Interactive Weather Map
Tropical Storm Tracking
New forecast layout! Learn more

10-Day Weather Forecast

Advertisements
Track Severe Weather on mobile